Sikesville, Alabama
Current Conditions -  °F | °C
As of 5:15 PM on Wednesday 22 Oct 2014 (Local Time) from KLGC Reporting Station
Clear Clear  
Wind Chill: 71°   Ceiling: Unl
Heat Index: 71°   Visibility: 10mi
Dew Point: 44°   Wind: 5mph
Humidity: 39%   Direction: 350°N
Pressure: 30.07"   Gusts: NA
Location:  33.1661°N, 85.5111°W
Report Text: KLGC 222215Z AUTO 35004KT 10SM CLR 22/07 A3007 RMK AO2 T02150069
Loading
Personal Weather Stations






























Interactive Weather Map
Tropical Storm Tracking
New forecast layout! Learn more

10-Day Weather Forecast

Advertisements
Track Severe Weather on mobile